TAF Text Data
IDs:
Format:
Raw Decoded Include METAR

Data at: 0732 UTC 24 Jan 2019

KMAF 240653Z 22006KT 10SM CLR 02/M07 A2999 RMK AO2 SLP146 T00171072

KMAF 240520Z 2406/2506 26008KT P6SM SKC
  FM241600 35016G26KT P6SM SKC
  FM250000 04012KT P6SM SKC